BIARBIRK

Guest
Details From BIAR - Akureyri
To BIRK - Reykjavik
Flight Number -
Tags Generated
Created
Modified
Stats Distance 135 nm / 249 km
Max Altitude 0 ft / 0 m
Waypoints 2
Social Downloads 1
Likes 0
Share VATSIM

Download

Looking for another format? Having issues loading an existing format? Contact us
Advertisement - Login to hide

Notes

Generated

Route

BIAR BIRK

ID Type Via Altitude Latitude Longitude Leg Dist Tot Dist Heading (true) Name
O BIAR APT - 0 ft / 0 m 65.64996˚ -18.07072˚ - 0 nm - -
O BIRK APT - 0 ft / 0 m 64.12743˚ -21.94699˚ 134 nm 134 nm 229° / 225° -

Altitude Profile

Advertisement - Login to hide

BIAR

Details ICAO BIAR (AEY)
Name Akureyri
Region Iceland
Timezone Unknown (UTC+0.0)
Stats Elevation 5 ft / 2 m (AMSL)
Location 65.656574° -18.071975°
Runways 1
Magnetic Variation 12.177° W

METAR

BIAR 231300Z 21015KT 180V250 9999 SCT050 11/M02 Q1011

Decode

TAF

TAF BIAR 230756Z 2309/2409 19023G33KT 9999 FEW055 TX13/2315Z TN05/2404Z BECMG 2314/2317 19012KT BECMG 2320/2322 VRB05KT BECMG 2406/2409 RA BKN020 OVC030

Decode

Departure Runways

ID Width Length Bearing (true) Bearing (mag) Surface Threshold Offset Overrun Length
01 148 ft / 45 m 7,855 ft / 2,394 m 355.54° 7.72° Asphalt 0 ft / 0 m 0 ft / 0 m
19 148 ft / 45 m 7,855 ft / 2,394 m 175.54° 187.72° Asphalt 0 ft / 0 m 0 ft / 0 m

BIRK

Details ICAO BIRK (RKV)
Name Reykjavik
Region Iceland
Timezone Atlantic/Reykjavik (UTC+0.0)
Stats Elevation 47 ft / 14 m (AMSL)
Location 64.129644° -21.940609°
Runways 3
Magnetic Variation 13.659° W

METAR

BIRK 231300Z 19022KT 9999 SCT026 BKN034 09/01 Q1012

Decode

TAF

TAF BIRK 230756Z 2309/2409 18022KT 9999 -SHRA FEW012 SCT025 BKN040 TX10/2315Z TN02/2404Z BECMG 2314/2317 19012KT BECMG 2320/2322 15005KT BECMG 2400/2403 VRB05KT

Decode

Destination Runways

ID Width Length Bearing (true) Bearing (mag) Surface Threshold Offset Overrun Length
01 148 ft / 45 m 5,129 ft / 1,563 m 355.27° 8.93° Asphalt 262 ft / 80 m 0 ft / 0 m
06 98 ft / 30 m 2,800 ft / 853 m 46.35° 60.01° Asphalt 299 ft / 91 m 0 ft / 0 m
13 148 ft / 45 m 4,023 ft / 1,226 m 116.28° 129.94° Asphalt 0 ft / 0 m 0 ft / 0 m
19 148 ft / 45 m 5,129 ft / 1,563 m 175.27° 188.93° Asphalt 0 ft / 0 m 0 ft / 0 m
24 98 ft / 30 m 2,800 ft / 853 m 226.37° 240.03° Asphalt 0 ft / 0 m 0 ft / 0 m
31 148 ft / 45 m 4,023 ft / 1,226 m 296.30° 309.96° Asphalt 213 ft / 65 m 0 ft / 0 m

Approach Navaids

Runway Type Ident Frequency Range Bearing (true) Bearing (mag) Slope Elevation
13 Localiser IRE 109.10 MHz 18 nm / 33 km 116.29° 129.95° - 38 ft / 12 m (AMSL)
19 Localiser IRK 109.90 MHz 18 nm / 33 km 175.26° 188.92° - 20 ft / 6 m (AMSL)
19 Glidescope IRK 109.90 MHz 10 nm / 19 km 175.26° 188.92° 3.50° 48 ft / 15 m (AMSL)

Popular Alternatives